WABB

Details ICAO WABB (BIK)
Name Biak Frans Kaisiepo
Region Indonesia
Timezone Asia/Jayapura (UTC+9.0)
Plans Departing 39
Arriving 50
Stats Elevation 46 ft / 14 m (AMSL)
Location -1.190022° 136.107988°
Runways 1
Magnetic Variation 2.087° E
Sunrise 2017-12-11 20:44:55 UTC / 2017-12-12 05:44:55 Local
Sunset 2017-12-12 08:56:12 UTC / 2017-12-12 17:56:12 Local
Advertisement - Login to hide

Runways

ID Width Length Bearing (true) Bearing (mag) Surface Threshold Offset Overrun Length
11 151 ft / 46 m 11,697 ft / 3,565 m 109.30° 107.21° Concrete 0 ft / 0 m 194 ft / 59 m
29 151 ft / 46 m 11,697 ft / 3,565 m 289.30° 287.21° Concrete 0 ft / 0 m 200 ft / 61 m

Approach Navaids

Runway Type Ident Frequency Range Bearing (true) Bearing (mag) Slope Elevation
11 Localiser IBIK 110.50 MHz 18 nm / 33 km 109.38° 107.29° - 25 ft / 8 m (AMSL)
11 Glidescope IBIK 110.50 MHz 10 nm / 19 km 109.30° 107.21° 3.00° 36 ft / 11 m (AMSL)

Map

Weather


0- 5 10 15 20 25 30 35+ Temperature / ° C

Clouds and Precipitation
Forecast for 2017-12-12 12:00 UTC. Updated an hour ago

Ground ~20,000 ft ~40,000 ft Winds

METAR

WABB 121200Z 12006KT 9999 FEW018 28/25 Q1006 NOSIG

TAF

TAF WABB 121100Z 1212/1318 32005KT 9999 SCT018 TEMPO 1215/1218 7000 RA FEW017CB BECMG 1222/1300 24008KT

Frequencies

Recorded 126.50 MHz ATIS
Approach 119.30 MHz BIAK APP
Tower 118.10 MHz TWR
Approach 121.20 MHz BIAK APP
Warning: Do not use this data for real-world aviation or navigation. No guarantee of current accuracy is given.